createdAt,value
2019-05-16T00:00:01.013Z,9.4
2019-05-16T00:05:01.078Z,9.6
2019-05-16T00:10:01.017Z,9.8
2019-05-16T00:15:01.011Z,9.9
2019-05-16T00:20:01.022Z,10.0
2019-05-16T00:30:01.149Z,9.9
2019-05-16T00:40:01.090Z,9.8
2019-05-16T00:45:01.154Z,9.8
2019-05-16T00:50:01.022Z,9.5
2019-05-16T00:55:01.091Z,10.1
2019-05-16T01:00:01.037Z,9.9
2019-05-16T01:05:01.710Z,10.5
2019-05-16T01:10:01.022Z,10.2
2019-05-16T01:15:01.166Z,10.6
2019-05-16T01:20:01.032Z,11.4
2019-05-16T01:25:01.101Z,11.1
2019-05-16T01:30:01.037Z,10.8
2019-05-16T01:35:01.110Z,11.8
2019-05-16T01:40:01.065Z,12.5
2019-05-16T01:45:01.171Z,12.0
2019-05-16T01:50:01.042Z,12.6
2019-05-16T01:55:01.172Z,12.9
2019-05-16T02:00:01.046Z,12.4
2019-05-16T02:05:01.106Z,11.7
2019-05-16T02:10:01.050Z,12.1
2019-05-16T02:15:01.113Z,13.2
2019-05-16T02:20:01.052Z,13.4
2019-05-16T02:25:01.178Z,14.0
2019-05-16T02:30:01.052Z,15.0
2019-05-16T02:35:01.487Z,14.3
2019-05-16T02:40:01.706Z,13.3
2019-05-16T02:45:02.278Z,13.6
2019-05-16T02:50:02.138Z,14.0
2019-05-16T03:00:01.924Z,15.0
2019-05-16T03:05:01.220Z,15.7
2019-05-16T03:10:01.710Z,16.9
2019-05-16T03:15:02.231Z,17.1
2019-05-16T03:20:01.549Z,17.2
2019-05-16T03:25:01.420Z,17.1
2019-05-16T03:30:01.892Z,16.4
2019-05-16T03:35:04.707Z,16.6
2019-05-16T03:40:01.078Z,18.1
2019-05-16T03:45:02.249Z,18.5
2019-05-16T03:50:01.077Z,19.3
2019-05-16T03:55:01.873Z,20.1
2019-05-16T04:00:01.099Z,19.4
2019-05-16T04:05:02.099Z,18.0
2019-05-16T04:10:02.139Z,17.6
2019-05-16T04:15:01.712Z,16.5
2019-05-16T04:20:02.292Z,16.7
2019-05-16T04:25:02.042Z,16.3
2019-05-16T04:30:01.780Z,15.8
2019-05-16T04:40:01.700Z,15.5
2019-05-16T04:45:01.373Z,14.4
2019-05-16T04:50:01.925Z,13.6
2019-05-16T04:55:01.226Z,13.5
2019-05-16T05:00:02.128Z,13.4
2019-05-16T05:05:01.543Z,13.8
2019-05-16T05:10:01.100Z,15.4
2019-05-16T05:15:01.658Z,15.7
2019-05-16T05:20:01.367Z,16.0
2019-05-16T05:30:01.296Z,16.9
2019-05-16T05:35:01.255Z,16.7
2019-05-16T05:40:01.109Z,17.4
2019-05-16T05:45:01.174Z,16.5
2019-05-16T05:50:01.113Z,16.4
2019-05-16T05:55:01.182Z,15.2
2019-05-16T06:00:01.118Z,14.4
2019-05-16T06:05:01.267Z,13.1
2019-05-16T06:10:01.121Z,13.6
2019-05-16T06:15:07.306Z,13.4
2019-05-16T06:20:01.121Z,13.0
2019-05-16T06:26:01.101Z,12.7
2019-05-16T06:31:02.186Z,13.0
2019-05-16T06:36:01.110Z,12.2
2019-05-16T06:41:01.118Z,11.3
2019-05-16T06:46:01.113Z,10.9
2019-05-16T06:51:02.833Z,10.4
2019-05-16T07:06:01.187Z,10.4
2019-05-16T07:12:02.383Z,10.3
2019-05-16T07:17:01.174Z,9.3
2019-05-16T07:22:01.112Z,8.6
2019-05-16T07:27:01.300Z,8.2
2019-05-16T07:32:01.111Z,7.6
2019-05-16T07:37:01.180Z,6.6
2019-05-16T07:42:01.114Z,6.8
2019-05-16T07:47:01.298Z,6.1
2019-05-16T07:52:01.123Z,5.4
2019-05-16T07:57:11.264Z,5.2
2019-05-16T08:02:03.144Z,5.8
2019-05-16T08:07:01.377Z,6.1
2019-05-16T08:12:01.836Z,6.5
2019-05-16T08:17:01.311Z,6.9
2019-05-16T08:22:01.466Z,6.5
2019-05-16T08:27:01.476Z,6.6
2019-05-16T08:32:02.059Z,6.2
2019-05-16T08:55:03.422Z,6.2
2019-05-16T09:00:01.221Z,5.3
2019-05-16T09:05:04.893Z,5.1
2019-05-16T09:10:00.540Z,5.2
2019-05-16T09:15:00.496Z,4.7
2019-05-16T09:20:00.381Z,4.5
2019-05-16T09:25:00.449Z,4.4
2019-05-16T09:30:00.395Z,4.2
2019-05-16T09:35:00.536Z,3.9
2019-05-16T09:40:00.434Z,4.5
2019-05-16T09:45:00.624Z,4.4
2019-05-16T09:50:00.366Z,5.4
2019-05-16T09:55:00.500Z,5.5
2019-05-16T10:00:00.387Z,6.0
2019-05-16T10:05:00.438Z,5.6
2019-05-16T10:10:00.374Z,5.8
2019-05-16T10:15:00.378Z,5.0
2019-05-16T10:25:00.513Z,4.4
2019-05-16T10:30:00.984Z,4.6
2019-05-16T10:35:00.534Z,4.2
2019-05-16T10:40:00.381Z,4.4
2019-05-16T10:45:00.460Z,4.4
2019-05-16T11:00:08.822Z,4.6
2019-05-16T11:05:20.499Z,4.2
2019-05-16T11:10:03.350Z,4.6
2019-05-16T11:15:00.537Z,4.8
2019-05-16T11:20:00.383Z,4.6
2019-05-16T11:25:00.519Z,4.8
2019-05-16T11:30:00.389Z,5.4
2019-05-16T11:35:00.456Z,5.2
2019-05-16T11:45:00.466Z,5.3
2019-05-16T11:50:00.399Z,5.0
2019-05-16T11:55:00.553Z,4.5
2019-05-16T12:00:00.430Z,4.4
2019-05-16T12:05:00.436Z,4.6
2019-05-16T12:10:00.436Z,4.7
2019-05-16T12:15:00.438Z,4.9
2019-05-16T12:20:00.443Z,5.1
2019-05-16T12:25:00.510Z,5.4
2019-05-16T12:30:00.447Z,5.3
2019-05-16T12:35:00.511Z,5.6
2019-05-16T12:40:00.449Z,5.8
2019-05-16T12:45:00.517Z,6.2
2019-05-16T12:50:00.450Z,6.1
2019-05-16T12:55:00.582Z,6.4
2019-05-16T13:00:00.663Z,6.2
2019-05-16T13:10:00.595Z,6.4
2019-05-16T13:15:00.530Z,6.4
2019-05-16T13:20:00.468Z,6.0
2019-05-16T13:25:00.597Z,6.2
2019-05-16T13:30:00.470Z,6.0
2019-05-16T13:35:00.881Z,5.6
2019-05-16T13:40:01.076Z,5.9
2019-05-16T13:45:00.497Z,6.0
2019-05-16T13:50:00.439Z,5.8
2019-05-16T13:55:00.507Z,6.0
2019-05-16T14:00:00.456Z,5.7
2019-05-16T14:05:00.571Z,5.6
2019-05-16T14:10:00.455Z,5.9
2019-05-16T14:15:00.504Z,6.0
2019-05-16T14:20:00.795Z,5.8
2019-05-16T14:30:00.444Z,5.9
2019-05-16T14:35:00.609Z,5.7
2019-05-16T14:40:01.632Z,5.8
2019-05-16T14:45:10.687Z,5.9
2019-05-16T14:50:00.876Z,6.3
2019-05-16T14:55:00.797Z,6.0
2019-05-16T15:00:00.455Z,6.1
2019-05-16T15:05:00.519Z,6.0
2019-05-16T15:10:00.465Z,5.8
2019-05-16T15:15:15.619Z,5.4
2019-05-16T15:20:00.481Z,5.6
2019-05-16T15:25:00.529Z,5.4
2019-05-16T15:30:00.461Z,5.3
2019-05-16T15:40:00.461Z,5.7
2019-05-16T15:45:00.598Z,5.4
2019-05-16T15:50:00.575Z,5.3
2019-05-16T15:55:00.536Z,5.1
2019-05-16T16:00:00.468Z,5.2
2019-05-16T16:05:00.634Z,4.6
2019-05-16T16:15:00.614Z,4.3
2019-05-16T16:20:00.548Z,4.6
2019-05-16T16:25:00.548Z,4.4
2019-05-16T16:30:00.480Z,4.8
2019-05-16T16:35:00.546Z,4.9
2019-05-16T16:45:00.600Z,5.2
2019-05-16T16:50:00.827Z,5.6
2019-05-16T16:55:00.551Z,5.3
2019-05-16T17:00:00.499Z,5.3
2019-05-16T17:05:02.370Z,5.5
2019-05-16T17:10:00.490Z,5.0
2019-05-16T17:15:00.619Z,4.6
2019-05-16T17:20:02.112Z,4.4
2019-05-16T17:30:00.907Z,4.2
2019-05-16T17:45:00.943Z,4.4
2019-05-16T17:50:00.507Z,4.6
2019-05-16T18:00:00.574Z,4.8
2019-05-16T18:10:00.514Z,4.6
2019-05-16T18:15:01.181Z,4.2
2019-05-16T18:25:00.645Z,3.8
2019-05-16T18:30:00.520Z,3.7
2019-05-16T18:35:00.607Z,4.1
2019-05-16T18:40:00.520Z,4.3
2019-05-16T18:45:00.589Z,4.3
2019-05-16T18:50:00.529Z,4.2
2019-05-16T18:55:00.652Z,4.6
2019-05-16T19:00:00.583Z,4.4
2019-05-16T19:05:00.730Z,4.6
2019-05-16T19:15:00.594Z,4.6
2019-05-16T19:20:00.531Z,4.4
2019-05-16T19:25:00.663Z,4.2
2019-05-16T19:30:00.598Z,4.0
2019-05-16T19:45:00.606Z,4.0
2019-05-16T19:50:00.536Z,3.8
2019-05-16T20:00:00.634Z,3.8
2019-05-16T20:05:01.158Z,4.0
2019-05-16T20:10:00.548Z,4.2
2019-05-16T20:15:07.823Z,4.3
2019-05-16T20:20:00.548Z,4.5
2019-05-16T20:30:00.625Z,4.1
2019-05-16T20:35:00.638Z,3.8
2019-05-16T20:40:00.723Z,3.6
2019-05-16T20:45:00.623Z,3.2
2019-05-16T20:50:00.558Z,3.0
2019-05-16T20:55:00.626Z,3.2
2019-05-16T21:00:00.899Z,3.8
2019-05-16T21:05:00.697Z,4.1
2019-05-16T21:10:00.589Z,4.3
2019-05-16T21:15:00.753Z,4.9
2019-05-16T21:20:00.944Z,4.8
2019-05-16T21:25:00.730Z,4.7
2019-05-16T21:30:00.608Z,4.8
2019-05-16T21:35:00.671Z,4.9
2019-05-16T21:40:00.613Z,5.0
2019-05-16T21:45:00.675Z,4.9
2019-05-16T21:50:00.851Z,5.0
2019-05-16T21:55:00.623Z,4.8
2019-05-16T22:00:00.591Z,5.2
2019-05-16T22:05:00.775Z,4.7
2019-05-16T22:10:00.586Z,4.6
2019-05-16T22:15:00.652Z,4.4
2019-05-16T22:20:06.997Z,4.5
2019-05-16T22:25:00.658Z,3.8
2019-05-16T22:30:00.587Z,3.9
2019-05-16T22:35:00.725Z,4.5
2019-05-16T22:40:00.591Z,4.8
2019-05-16T22:45:00.627Z,4.5
2019-05-16T22:50:00.619Z,5.0
2019-05-16T22:55:00.598Z,4.8
2019-05-16T23:00:00.633Z,4.4
2019-05-16T23:05:01.633Z,3.7
2019-05-16T23:10:00.605Z,3.9
2019-05-16T23:15:00.726Z,3.9
2019-05-16T23:20:00.602Z,4.3
2019-05-16T23:25:00.672Z,4.7
2019-05-16T23:30:00.647Z,4.9
2019-05-16T23:35:00.719Z,5.0
2019-05-16T23:45:00.617Z,5.2
2019-05-16T23:50:00.613Z,5.0
2019-05-16T23:55:00.691Z,5.3
